WAT8305 KEGE-KDTW
Flight info
| Callsign | WAT8305 |
|---|---|
| Flight time | N/A |
| Altitude | 33000 |
| Route | BEVVR1 BELGN LEWOY OVR JOT HANBL LECTR3 |
| Aircraft | B738/M-SDE2E3FGHIRWXY/LB2 |
Departure
| Time | 2026-04-24 19:19 |
|---|---|
| Airport | Eagle County Regional Airport (KEGE) |
Arrival
| Time | N/A |
|---|---|
| Airport | Detroit Metropolitan Wayne County Airport (KDTW) |
| Time | Latitude | Longitude | Altitude | Speed | Heading |
|---|---|---|---|---|---|
| 2026-04-24 18:57 | 39.64065 | -106.91483 | 6526 ft | 0 kts | 172° |
| 2026-04-24 19:11 | 39.64068 | -106.91484 | 6564 ft | 3 kts | 173° |
| 2026-04-24 19:11 | 39.64085 | -106.91476 | 6529 ft | 4 kts | 227° |
| 2026-04-24 19:12 | 39.64095 | -106.91465 | 6527 ft | 1 kts | 210° |
| 2026-04-24 19:14 | 39.64094 | -106.91467 | 6526 ft | 1 kts | 224° |
| 2026-04-24 19:14 | 39.64097 | -106.91480 | 6529 ft | 4 kts | 286° |
| 2026-04-24 19:15 | 39.64126 | -106.91551 | 6525 ft | 10 kts | 313° |
| 2026-04-24 19:15 | 39.64167 | -106.91533 | 6524 ft | 7 kts | 60° |
| 2026-04-24 19:15 | 39.64177 | -106.91449 | 6521 ft | 11 kts | 80° |
| 2026-04-24 19:15 | 39.64191 | -106.91351 | 6525 ft | 11 kts | 79° |
| 2026-04-24 19:16 | 39.64218 | -106.91131 | 6529 ft | 17 kts | 82° |
| 2026-04-24 19:16 | 39.64234 | -106.90980 | 6531 ft | 18 kts | 82° |
| 2026-04-24 19:16 | 39.64251 | -106.90823 | 6539 ft | 17 kts | 82° |
| 2026-04-24 19:17 | 39.64268 | -106.90672 | 6540 ft | 17 kts | 82° |
| 2026-04-24 19:17 | 39.64284 | -106.90527 | 6541 ft | 16 kts | 81° |
| 2026-04-24 19:17 | 39.64303 | -106.90377 | 6545 ft | 17 kts | 81° |
| 2026-04-24 19:17 | 39.64317 | -106.90228 | 6549 ft | 16 kts | 83° |
| 2026-04-24 19:18 | 39.64332 | -106.90084 | 6550 ft | 16 kts | 81° |
| 2026-04-24 19:18 | 39.64397 | -106.90021 | 6551 ft | 13 kts | 352° |
| 2026-04-24 19:18 | 39.64447 | -106.90060 | 6551 ft | 6 kts | 270° |
| 2026-04-24 19:18 | 39.64444 | -106.90076 | 6550 ft | 12 kts | 259° |
| 2026-04-24 19:19 | 39.64398 | -106.90485 | 6546 ft | 78 kts | 262° |
| 2026-04-24 19:19 | 39.64293 | -106.91447 | 6521 ft | 136 kts | 262° |
| 2026-04-24 19:19 | 39.64151 | -106.92858 | 6692 ft | 168 kts | 264° |
| 2026-04-24 19:19 | 39.63929 | -106.94357 | 7436 ft | 174 kts | 245° |
| 2026-04-24 19:20 | 39.63052 | -106.95457 | 7984 ft | 184 kts | 206° |
| 2026-04-24 19:20 | 39.61843 | -106.96081 | 8523 ft | 193 kts | 208° |
| 2026-04-24 19:20 | 39.60616 | -106.96878 | 8862 ft | 198 kts | 218° |
| 2026-04-24 19:20 | 39.59532 | -106.97945 | 9443 ft | 191 kts | 219° |
| 2026-04-24 19:21 | 39.58456 | -106.98951 | 9789 ft | 197 kts | 227° |
| 2026-04-24 19:21 | 39.57818 | -107.00551 | 9848 ft | 213 kts | 264° |
| 2026-04-24 19:21 | 39.57909 | -107.02523 | 10154 ft | 223 kts | 274° |
| 2026-04-24 19:21 | 39.58078 | -107.04572 | 10638 ft | 232 kts | 272° |
| 2026-04-24 19:22 | 39.58323 | -107.05929 | 10981 ft | 240 kts | 288° |
| 2026-04-24 19:22 | 39.59736 | -107.08384 | 11482 ft | 267 kts | 313° |
| 2026-04-24 19:22 | 39.61139 | -107.09934 | 12308 ft | 265 kts | 317° |
| 2026-04-24 19:22 | 39.62821 | -107.10913 | 13173 ft | 270 kts | 342° |
| 2026-04-24 19:23 | 39.64749 | -107.10941 | 13704 ft | 289 kts | 5° |
| 2026-04-24 19:23 | 39.66749 | -107.10382 | 14135 ft | 297 kts | 7° |
| 2026-04-24 19:23 | 39.68765 | -107.09805 | 14739 ft | 296 kts | 7° |
| 2026-04-24 19:23 | 39.70785 | -107.09236 | 15355 ft | 297 kts | 6° |
| 2026-04-24 19:24 | 39.72789 | -107.08516 | 15902 ft | 306 kts | 22° |
| 2026-04-24 19:24 | 39.74534 | -107.06827 | 16235 ft | 324 kts | 41° |
| 2026-04-24 19:24 | 39.76160 | -107.04667 | 16383 ft | 343 kts | 44° |
| 2026-04-24 19:24 | 39.77839 | -107.02345 | 16531 ft | 361 kts | 44° |
| 2026-04-24 19:25 | 39.79601 | -106.99901 | 16670 ft | 379 kts | 44° |
| 2026-04-24 19:25 | 39.81448 | -106.97354 | 16821 ft | 395 kts | 43° |
| 2026-04-24 19:25 | 39.83362 | -106.94737 | 16922 ft | 412 kts | 43° |
| 2026-04-24 19:25 | 39.85375 | -106.91995 | 17051 ft | 427 kts | 43° |
| 2026-04-24 19:26 | 39.87464 | -106.89156 | 17243 ft | 439 kts | 43° |
| 2026-04-24 19:26 | 39.89590 | -106.86268 | 17788 ft | 441 kts | 43° |
| 2026-04-24 19:26 | 39.91720 | -106.83371 | 18291 ft | 444 kts | 43° |
| 2026-04-24 19:26 | 39.93865 | -106.80453 | 18727 ft | 447 kts | 43° |
| 2026-04-24 19:27 | 39.96025 | -106.77510 | 19115 ft | 451 kts | 43° |
| 2026-04-24 19:27 | 39.98197 | -106.74546 | 19539 ft | 453 kts | 43° |
| 2026-04-24 19:27 | 40.00384 | -106.71560 | 19955 ft | 456 kts | 43° |
| 2026-04-24 19:27 | 40.02582 | -106.68558 | 20372 ft | 459 kts | 42° |
| 2026-04-24 19:28 | 40.04743 | -106.65472 | 20773 ft | 465 kts | 50° |
| 2026-04-24 19:28 | 40.06318 | -106.61749 | 21142 ft | 475 kts | 69° |
| 2026-04-24 19:28 | 40.07147 | -106.57620 | 21586 ft | 478 kts | 76° |
| 2026-04-24 19:28 | 40.07854 | -106.53369 | 21983 ft | 481 kts | 77° |
| 2026-04-24 19:29 | 40.09277 | -106.44754 | 22725 ft | 487 kts | 77° |
| 2026-04-24 19:29 | 40.10020 | -106.40430 | 23068 ft | 489 kts | 76° |
| 2026-04-24 19:29 | 40.10784 | -106.36076 | 23377 ft | 494 kts | 76° |
| 2026-04-24 19:30 | 40.11558 | -106.31699 | 23690 ft | 496 kts | 76° |
| 2026-04-24 19:30 | 40.12333 | -106.27298 | 24020 ft | 498 kts | 76° |
| 2026-04-24 19:30 | 40.12848 | -106.24368 | 24238 ft | 500 kts | 76° |
| 2026-04-24 19:30 | 40.13589 | -106.19915 | 24554 ft | 502 kts | 77° |
| 2026-04-24 19:31 | 40.14266 | -106.15425 | 24842 ft | 506 kts | 78° |
| 2026-04-24 19:31 | 40.14913 | -106.10894 | 25096 ft | 509 kts | 78° |
| 2026-04-24 19:31 | 40.15554 | -106.06331 | 25398 ft | 511 kts | 79° |
| 2026-04-24 19:31 | 40.16406 | -106.00266 | 25748 ft | 515 kts | 79° |
| 2026-04-24 19:32 | 40.16849 | -105.97139 | 25914 ft | 517 kts | 78° |
| 2026-04-24 19:32 | 40.17508 | -105.92521 | 26196 ft | 518 kts | 78° |
| 2026-04-24 19:32 | 40.18173 | -105.87886 | 26469 ft | 519 kts | 78° |
| 2026-04-24 19:32 | 40.18832 | -105.83303 | 26700 ft | 521 kts | 78° |
| 2026-04-24 19:33 | 40.19503 | -105.78621 | 26918 ft | 524 kts | 78° |
| 2026-04-24 19:33 | 40.20175 | -105.73934 | 27193 ft | 525 kts | 78° |
| 2026-04-24 19:33 | 40.20845 | -105.69244 | 27550 ft | 524 kts | 78° |
| 2026-04-24 19:33 | 40.21509 | -105.64572 | 27959 ft | 521 kts | 78° |
| 2026-04-24 19:34 | 40.22167 | -105.59916 | 28413 ft | 517 kts | 78° |
| 2026-04-24 19:34 | 40.22818 | -105.55297 | 28758 ft | 516 kts | 78° |
| 2026-04-24 19:34 | 40.23467 | -105.50678 | 29111 ft | 514 kts | 78° |
| 2026-04-24 19:34 | 40.24112 | -105.46079 | 29486 ft | 513 kts | 78° |
| 2026-04-24 19:35 | 40.24754 | -105.41491 | 29843 ft | 512 kts | 79° |
| 2026-04-24 19:35 | 40.25394 | -105.36907 | 30148 ft | 511 kts | 78° |
| 2026-04-24 19:35 | 40.26029 | -105.32342 | 30490 ft | 508 kts | 78° |
| 2026-04-24 19:35 | 40.26661 | -105.27787 | 30765 ft | 508 kts | 78° |
| 2026-04-24 19:36 | 40.27282 | -105.23295 | 30925 ft | 510 kts | 78° |
| 2026-04-24 19:36 | 40.27916 | -105.18697 | 31116 ft | 512 kts | 78° |
| 2026-04-24 19:36 | 40.28547 | -105.14103 | 31344 ft | 512 kts | 78° |
| 2026-04-24 19:36 | 40.29175 | -105.09513 | 31561 ft | 513 kts | 78° |
| 2026-04-24 19:37 | 40.29804 | -105.04901 | 31755 ft | 514 kts | 78° |
| 2026-04-24 19:37 | 40.30434 | -105.00280 | 31957 ft | 515 kts | 78° |
| 2026-04-24 19:37 | 40.31062 | -104.95649 | 32161 ft | 517 kts | 78° |
| 2026-04-24 19:37 | 40.31690 | -104.91011 | 32369 ft | 517 kts | 78° |
| 2026-04-24 19:38 | 40.32317 | -104.86356 | 32580 ft | 518 kts | 78° |
| 2026-04-24 19:38 | 40.32941 | -104.81707 | 32779 ft | 518 kts | 78° |
| 2026-04-24 19:38 | 40.33558 | -104.77105 | 32752 ft | 521 kts | 79° |
| 2026-04-24 19:39 | 40.34807 | -104.67743 | 32734 ft | 520 kts | 79° |
| 2026-04-24 19:39 | 40.36041 | -104.58422 | 32703 ft | 517 kts | 79° |
| 2026-04-24 19:40 | 40.37262 | -104.49139 | 32697 ft | 515 kts | 79° |
| 2026-04-24 19:40 | 40.38464 | -104.39951 | 32705 ft | 514 kts | 79° |
| 2026-04-24 19:41 | 40.39664 | -104.30705 | 32704 ft | 514 kts | 79° |
| 2026-04-24 19:41 | 40.40859 | -104.21456 | 32726 ft | 514 kts | 79° |
| 2026-04-24 19:42 | 40.42047 | -104.12198 | 32751 ft | 514 kts | 79° |
| 2026-04-24 19:42 | 40.43226 | -104.02943 | 32781 ft | 515 kts | 80° |
| 2026-04-24 19:43 | 40.44400 | -103.93667 | 32807 ft | 515 kts | 80° |
| 2026-04-24 19:43 | 40.45562 | -103.84426 | 32789 ft | 515 kts | 80° |
| 2026-04-24 19:44 | 40.46723 | -103.75133 | 32783 ft | 516 kts | 80° |
| 2026-04-24 19:44 | 40.47878 | -103.65826 | 32775 ft | 516 kts | 80° |
| 2026-04-24 19:45 | 40.49024 | -103.56521 | 32743 ft | 517 kts | 80° |
| 2026-04-24 19:45 | 40.50157 | -103.47256 | 32786 ft | 517 kts | 80° |